createdAt,value
2022-09-13T00:00:46.998Z,4.35
2022-09-13T00:03:14.108Z,4.72
2022-09-13T00:05:40.883Z,4.82
2022-09-13T00:08:08.026Z,4.55
2022-09-13T00:10:36.556Z,4.20
2022-09-13T00:13:04.088Z,4.85
2022-09-13T00:15:31.149Z,4.70
2022-09-13T00:17:59.580Z,5.10
2022-09-13T00:20:28.150Z,4.65
2022-09-13T00:22:54.832Z,4.68
2022-09-13T00:25:21.832Z,4.35
2022-09-13T00:27:48.509Z,4.95
2022-09-13T00:30:15.258Z,4.68
2022-09-13T00:32:42.306Z,4.40
2022-09-13T00:35:09.980Z,4.45
2022-09-13T00:37:36.754Z,4.93
2022-09-13T00:40:06.350Z,4.93
2022-09-13T00:42:36.722Z,5.00
2022-09-13T00:45:24.629Z,5.22
2022-09-13T00:47:58.169Z,4.72
2022-09-13T00:50:45.465Z,5.00
2022-09-13T00:53:22.208Z,4.97
2022-09-13T00:56:00.604Z,5.15
2022-09-13T00:58:39.084Z,5.20
2022-09-13T01:01:09.300Z,5.28
2022-09-13T01:03:37.635Z,5.03
2022-09-13T01:06:15.833Z,5.32
2022-09-13T01:08:44.506Z,4.75
2022-09-13T01:11:16.049Z,5.22
2022-09-13T01:13:43.069Z,4.88
2022-09-13T01:16:10.525Z,4.78
2022-09-13T01:18:37.363Z,4.82
2022-09-13T01:22:00.304Z,4.60
2022-09-13T01:25:23.296Z,5.00
2022-09-13T01:31:36.079Z,4.82
2022-09-13T01:34:33.108Z,5.18
2022-09-13T01:37:25.543Z,5.05
2022-09-13T01:40:08.834Z,4.78
2022-09-13T01:42:47.465Z,4.82
2022-09-13T01:45:30.483Z,4.57
2022-09-13T01:48:17.784Z,4.85
2022-09-13T01:50:53.728Z,4.78
2022-09-13T01:53:50.777Z,4.97
2022-09-13T01:56:27.378Z,4.63
2022-09-13T01:58:58.382Z,4.80
2022-09-13T02:01:30.834Z,4.80
2022-09-13T02:04:24.821Z,4.90
2022-09-13T02:07:04.355Z,4.43
2022-09-13T02:09:35.206Z,3.88
2022-09-13T02:12:17.324Z,4.05
2022-09-13T02:14:45.684Z,4.25
2022-09-13T02:17:24.537Z,4.18
2022-09-13T02:20:08.441Z,4.60
2022-09-13T02:22:39.339Z,5.73
2022-09-13T02:25:10.698Z,5.50
2022-09-13T02:27:39.489Z,5.10
2022-09-13T02:30:10.056Z,4.95
2022-09-13T02:32:40.931Z,5.18
2022-09-13T02:35:17.208Z,5.30
2022-09-13T02:37:50.317Z,4.90
2022-09-13T02:40:22.286Z,5.40
2022-09-13T02:42:59.716Z,5.10
2022-09-13T02:45:32.252Z,5.47
2022-09-13T02:48:10.646Z,4.93
2022-09-13T02:51:00.093Z,5.18
2022-09-13T02:53:35.172Z,5.50
2022-09-13T02:56:26.729Z,4.55
2022-09-13T02:58:58.498Z,3.25
2022-09-13T03:01:25.870Z,2.90
2022-09-13T03:03:56.417Z,3.08
2022-09-13T03:06:24.777Z,3.20
2022-09-13T03:08:52.445Z,3.35
2022-09-13T03:11:38.760Z,3.28
2022-09-13T03:14:55.459Z,3.50
2022-09-13T03:17:51.871Z,3.92
2022-09-13T03:20:36.074Z,3.92
2022-09-13T03:23:40.100Z,4.15
2022-09-13T03:26:26.088Z,3.70
2022-09-13T03:29:07.745Z,2.97
2022-09-13T03:31:47.950Z,2.90
2022-09-13T03:34:35.765Z,2.70
2022-09-13T03:37:21.496Z,3.10
2022-09-13T03:40:01.103Z,3.55
2022-09-13T03:43:17.555Z,4.85
2022-09-13T03:45:55.719Z,4.28
2022-09-13T03:48:23.750Z,5.07
2022-09-13T03:50:51.356Z,4.28
2022-09-13T03:53:22.874Z,3.75
2022-09-13T03:55:49.833Z,2.90
2022-09-13T03:58:21.175Z,2.70
2022-09-13T04:00:48.269Z,2.35
2022-09-13T04:03:15.548Z,2.95
2022-09-13T04:05:42.729Z,2.50
2022-09-13T04:08:10.054Z,3.00
2022-09-13T04:10:37.952Z,3.20
2022-09-13T04:13:05.277Z,3.60
2022-09-13T04:15:32.175Z,3.35
2022-09-13T04:17:59.159Z,3.55
2022-09-13T04:20:26.178Z,3.20
2022-09-13T04:22:54.029Z,3.45
2022-09-13T04:25:22.468Z,3.42
2022-09-13T04:27:54.190Z,4.43
2022-09-13T04:30:22.170Z,4.07
2022-09-13T04:32:48.831Z,4.00
2022-09-13T04:35:19.818Z,4.50
2022-09-13T04:37:46.556Z,4.18
2022-09-13T04:40:14.908Z,4.50
2022-09-13T04:42:41.686Z,4.80
2022-09-13T04:45:09.852Z,5.10
2022-09-13T04:47:36.735Z,5.60
2022-09-13T04:50:03.558Z,6.40
2022-09-13T04:52:30.415Z,5.45
2022-09-13T04:55:01.038Z,5.10
2022-09-13T04:57:28.987Z,6.10
2022-09-13T04:59:55.723Z,5.80
2022-09-13T05:02:22.911Z,6.18
2022-09-13T05:04:49.783Z,6.53
2022-09-13T05:07:17.008Z,6.47
2022-09-13T05:09:43.774Z,6.50
2022-09-13T05:12:11.944Z,6.90
2022-09-13T05:14:38.757Z,6.47
2022-09-13T05:17:05.579Z,6.70
2022-09-13T05:19:32.774Z,7.10
2022-09-13T05:21:59.704Z,6.25
2022-09-13T05:24:26.526Z,6.75
2022-09-13T05:26:54.316Z,6.57
2022-09-13T05:29:21.316Z,6.88
2022-09-13T05:31:48.449Z,7.10
2022-09-13T05:34:17.890Z,6.60
2022-09-13T05:36:44.844Z,6.38
2022-09-13T05:42:05.039Z,6.07
2022-09-13T05:44:31.666Z,6.70
2022-09-13T05:46:58.682Z,7.00
2022-09-13T05:49:25.908Z,6.93
2022-09-13T05:51:53.314Z,7.53
2022-09-13T05:54:20.301Z,8.73
2022-09-13T05:56:46.864Z,9.52
2022-09-13T05:59:14.948Z,10.30
2022-09-13T06:01:43.109Z,15.70
2022-09-13T06:04:10.505Z,12.30
2022-09-13T06:06:37.389Z,10.95
2022-09-13T06:09:06.713Z,9.00
2022-09-13T06:11:33.680Z,9.25
2022-09-13T06:14:02.129Z,9.43
2022-09-13T06:16:29.456Z,8.52
2022-09-13T06:18:58.271Z,8.32
2022-09-13T06:21:28.916Z,8.13
2022-09-13T06:23:56.290Z,8.02
2022-09-13T06:26:24.965Z,8.45
2022-09-13T06:28:53.862Z,8.25
2022-09-13T06:31:23.187Z,8.25
2022-09-13T06:33:51.080Z,8.50
2022-09-13T06:36:21.884Z,8.30
2022-09-13T06:38:49.957Z,9.00
2022-09-13T06:41:23.879Z,8.23
2022-09-13T06:43:57.728Z,8.32
2022-09-13T06:46:25.958Z,8.00
2022-09-13T06:48:54.732Z,7.82
2022-09-13T06:51:24.997Z,7.57
2022-09-13T06:53:53.384Z,7.75
2022-09-13T06:56:29.357Z,7.82
2022-09-13T06:59:05.191Z,7.57
2022-09-13T07:01:35.894Z,9.02
2022-09-13T07:04:05.240Z,8.73
2022-09-13T07:06:33.955Z,8.32
2022-09-13T07:09:03.225Z,8.38
2022-09-13T07:11:37.022Z,8.27
2022-09-13T07:14:04.636Z,8.65
2022-09-13T07:16:35.953Z,9.48
2022-09-13T07:19:08.233Z,8.73
2022-09-13T07:21:35.790Z,10.80
2022-09-13T07:24:03.356Z,10.50
2022-09-13T07:26:31.999Z,10.63
2022-09-13T07:29:00.738Z,10.27
2022-09-13T07:31:32.899Z,10.07
2022-09-13T07:34:02.893Z,9.80
2022-09-13T07:36:32.263Z,10.77
2022-09-13T07:39:00.216Z,9.98
2022-09-13T07:41:28.353Z,9.75
2022-09-13T07:43:56.397Z,10.00
2022-09-13T07:46:28.297Z,10.88
2022-09-13T07:48:57.142Z,10.00
2022-09-13T07:51:32.605Z,9.80
2022-09-13T07:54:01.812Z,10.00
2022-09-13T07:56:31.261Z,10.00
2022-09-13T07:59:01.543Z,9.50
2022-09-13T08:01:55.826Z,9.15
2022-09-13T08:04:25.625Z,8.82
2022-09-13T08:06:52.853Z,8.07
2022-09-13T08:09:20.163Z,9.07
2022-09-13T08:11:54.972Z,8.88
2022-09-13T08:14:22.953Z,8.63
2022-09-13T08:16:50.494Z,8.52
2022-09-13T08:19:18.694Z,8.25
2022-09-13T08:21:45.999Z,8.63
2022-09-13T08:24:18.548Z,8.07
2022-09-13T08:26:46.043Z,8.43
2022-09-13T08:29:14.140Z,8.38
2022-09-13T08:31:43.996Z,8.98
2022-09-13T08:34:15.853Z,8.45
2022-09-13T08:36:43.335Z,8.02
2022-09-13T08:39:14.192Z,8.70
2022-09-13T08:41:53.224Z,8.90
2022-09-13T08:44:30.130Z,7.95
2022-09-13T08:47:15.153Z,7.90
2022-09-13T08:49:45.867Z,8.65
2022-09-13T08:52:34.556Z,7.40
2022-09-13T08:55:08.834Z,7.93
2022-09-13T08:57:47.858Z,7.72
2022-09-13T09:00:50.679Z,7.57
2022-09-13T09:03:38.971Z,7.78
2022-09-13T09:06:16.179Z,7.03
2022-09-13T09:09:05.290Z,7.28
2022-09-13T09:11:44.326Z,7.38
2022-09-13T09:14:47.920Z,6.82
2022-09-13T09:17:49.880Z,7.60
2022-09-13T09:20:37.283Z,7.70
2022-09-13T09:23:08.771Z,6.97
2022-09-13T09:25:35.742Z,7.53
2022-09-13T09:28:11.212Z,7.00
2022-09-13T09:30:54.046Z,6.38
2022-09-13T09:33:31.862Z,6.00
2022-09-13T09:36:07.607Z,5.72
2022-09-13T09:38:42.944Z,6.30
2022-09-13T09:41:37.192Z,5.65
2022-09-13T09:44:17.796Z,5.75
2022-09-13T09:46:49.357Z,5.47
2022-09-13T09:49:40.537Z,5.18
2022-09-13T09:52:11.373Z,4.70
2022-09-13T09:54:40.009Z,5.30
2022-09-13T09:57:09.952Z,4.70
2022-09-13T09:59:37.462Z,4.32
2022-09-13T10:02:19.752Z,4.90
2022-09-13T10:04:57.252Z,4.65
2022-09-13T10:07:32.951Z,4.75
2022-09-13T10:10:08.694Z,4.65
2022-09-13T10:12:39.571Z,4.55
2022-09-13T10:15:29.868Z,4.03
2022-09-13T10:18:42.366Z,4.88
2022-09-13T10:21:06.348Z,4.30
2022-09-13T10:23:35.942Z,3.65
2022-09-13T10:26:33.204Z,3.83
2022-09-13T10:29:09.152Z,3.97
2022-09-13T10:31:40.611Z,4.07
2022-09-13T10:34:30.174Z,3.80
2022-09-13T10:37:06.555Z,3.67
2022-09-13T10:39:36.208Z,3.58
2022-09-13T10:42:07.438Z,3.38
2022-09-13T10:45:21.381Z,3.33
2022-09-13T10:47:51.588Z,3.47
2022-09-13T10:50:26.984Z,3.85
2022-09-13T10:52:58.927Z,4.07
2022-09-13T10:55:55.395Z,3.53
2022-09-13T10:58:22.464Z,4.25
2022-09-13T11:01:11.855Z,3.80
2022-09-13T11:04:17.726Z,4.25
2022-09-13T11:07:18.519Z,4.20
2022-09-13T11:09:53.751Z,3.55
2022-09-13T11:12:34.927Z,3.05
2022-09-13T11:15:37.456Z,2.85
2022-09-13T11:18:26.139Z,2.40
2022-09-13T11:20:59.591Z,2.00
2022-09-13T11:23:56.140Z,1.55
2022-09-13T11:26:55.345Z,1.50
2022-09-13T11:30:17.797Z,1.50
2022-09-13T11:33:33.657Z,1.58
2022-09-13T11:38:59.303Z,1.50
2022-09-13T11:41:38.498Z,1.30
2022-09-13T11:44:31.308Z,1.20
2022-09-13T11:47:21.206Z,1.00
2022-09-13T11:50:42.915Z,0.90
2022-09-13T11:56:43.263Z,1.05
2022-09-13T11:59:31.309Z,0.85
2022-09-13T12:02:02.355Z,1.08
2022-09-13T12:04:35.419Z,0.88
2022-09-13T12:07:10.721Z,1.20
2022-09-13T12:09:42.233Z,0.93
2022-09-13T12:12:14.223Z,1.00
2022-09-13T12:14:50.972Z,1.00
2022-09-13T12:17:30.825Z,1.08
2022-09-13T12:20:00.997Z,1.00
2022-09-13T12:22:31.183Z,1.02
2022-09-13T12:25:00.359Z,1.00
2022-09-13T12:27:46.665Z,1.00
2022-09-13T12:30:21.554Z,1.08
2022-09-13T12:32:49.458Z,1.10
2022-09-13T12:35:36.303Z,1.08
2022-09-13T12:38:21.008Z,1.20
2022-09-13T12:41:03.362Z,1.30
2022-09-13T12:43:51.536Z,1.10
2022-09-13T12:46:50.584Z,1.20
2022-09-13T12:49:36.660Z,1.48
2022-09-13T12:52:33.019Z,1.33
2022-09-13T12:55:29.413Z,1.50
2022-09-13T12:58:38.177Z,1.58
2022-09-13T13:01:16.127Z,1.70
2022-09-13T13:04:00.144Z,1.50
2022-09-13T13:06:41.686Z,1.50
2022-09-13T13:09:28.795Z,1.55
2022-09-13T13:11:58.649Z,1.30
2022-09-13T13:14:40.745Z,1.80
2022-09-13T13:17:44.783Z,1.50
2022-09-13T13:21:07.782Z,1.23
2022-09-13T13:23:39.262Z,1.42
2022-09-13T13:26:43.127Z,1.60
2022-09-13T13:29:22.747Z,1.55
2022-09-13T13:32:19.095Z,1.63
2022-09-13T13:34:48.741Z,1.50
2022-09-13T13:37:35.900Z,1.35
2022-09-13T13:40:26.256Z,1.63
2022-09-13T13:43:17.357Z,1.35
2022-09-13T13:45:58.221Z,1.42
2022-09-13T13:48:41.081Z,1.38
2022-09-13T13:51:22.137Z,1.50
2022-09-13T13:53:52.542Z,1.85
2022-09-13T13:56:28.096Z,1.80
2022-09-13T13:58:59.902Z,1.38
2022-09-13T14:01:29.309Z,1.38
2022-09-13T14:04:51.245Z,1.20
2022-09-13T14:07:36.364Z,1.17
2022-09-13T14:10:44.837Z,1.30
2022-09-13T14:13:44.939Z,1.55
2022-09-13T14:16:36.931Z,1.40
2022-09-13T14:19:19.928Z,1.40
2022-09-13T14:21:46.638Z,1.50
2022-09-13T14:24:25.605Z,1.60
2022-09-13T14:26:59.438Z,1.65
2022-09-13T14:29:27.042Z,1.50
2022-09-13T14:31:57.333Z,1.30
2022-09-13T14:34:51.802Z,1.20
2022-09-13T14:37:19.985Z,1.35
2022-09-13T14:40:00.715Z,1.10
2022-09-13T14:42:38.517Z,1.15
2022-09-13T14:45:06.384Z,1.10
2022-09-13T14:47:38.439Z,1.40
2022-09-13T14:50:16.673Z,1.05
2022-09-13T14:53:05.466Z,1.00
2022-09-13T14:55:39.663Z,0.98
2022-09-13T14:58:09.343Z,1.27
2022-09-13T15:00:46.406Z,0.90
2022-09-13T15:03:16.888Z,1.00
2022-09-13T15:05:54.678Z,0.90
2022-09-13T15:08:54.365Z,0.90
2022-09-13T15:11:34.390Z,0.90
2022-09-13T15:14:20.645Z,0.90
2022-09-13T15:16:51.099Z,0.98
2022-09-13T15:19:29.557Z,1.00
2022-09-13T15:22:20.687Z,0.90
2022-09-13T15:24:55.018Z,1.00
2022-09-13T15:30:04.366Z,1.30
2022-09-13T15:32:44.641Z,1.10
2022-09-13T15:35:41.495Z,1.63
2022-09-13T15:38:37.842Z,1.13
2022-09-13T15:41:18.437Z,1.10
2022-09-13T15:43:45.615Z,1.90
2022-09-13T15:46:15.758Z,2.00
2022-09-13T15:48:50.658Z,1.20
2022-09-13T15:51:17.860Z,1.25
2022-09-13T15:53:46.161Z,1.10
2022-09-13T15:56:20.454Z,2.30
2022-09-13T15:58:47.418Z,1.30
2022-09-13T16:01:17.388Z,1.20
2022-09-13T16:03:45.296Z,1.55
2022-09-13T16:06:12.680Z,1.40
2022-09-13T16:08:40.195Z,1.20
2022-09-13T16:11:07.526Z,1.40
2022-09-13T16:13:35.414Z,1.40
2022-09-13T16:16:04.351Z,2.10
2022-09-13T16:18:32.599Z,1.60
2022-09-13T16:21:00.372Z,2.75
2022-09-13T16:23:27.265Z,1.58
2022-09-13T16:25:57.383Z,1.90
2022-09-13T16:28:24.148Z,1.63
2022-09-13T16:30:51.223Z,2.17
2022-09-13T16:33:18.336Z,1.60
2022-09-13T16:35:45.095Z,1.80
2022-09-13T16:38:12.249Z,1.70
2022-09-13T16:40:42.610Z,2.05
2022-09-13T16:43:11.015Z,1.70
2022-09-13T16:45:42.297Z,1.75
2022-09-13T16:48:09.389Z,1.70
2022-09-13T16:50:40.803Z,1.90
2022-09-13T16:53:09.154Z,2.30
2022-09-13T16:55:36.236Z,1.92
2022-09-13T16:58:03.012Z,2.10
2022-09-13T17:00:30.365Z,1.95
2022-09-13T17:02:57.425Z,1.90
2022-09-13T17:05:24.884Z,1.92
2022-09-13T17:07:52.831Z,1.90
2022-09-13T17:10:20.375Z,2.10
2022-09-13T17:12:47.999Z,1.83
2022-09-13T17:15:15.602Z,2.50
2022-09-13T17:17:44.132Z,2.28
2022-09-13T17:20:13.995Z,2.00
2022-09-13T17:22:41.232Z,2.10
2022-09-13T17:25:09.093Z,1.90
2022-09-13T17:27:37.258Z,1.92
2022-09-13T17:30:06.060Z,1.80
2022-09-13T17:32:32.896Z,2.05
2022-09-13T17:34:59.864Z,1.77
2022-09-13T17:37:27.320Z,1.80
2022-09-13T17:39:54.618Z,1.60
2022-09-13T17:42:23.532Z,1.77
2022-09-13T17:44:50.650Z,1.80
2022-09-13T17:47:17.399Z,1.98
2022-09-13T17:49:44.102Z,2.40
2022-09-13T17:52:12.175Z,2.42
2022-09-13T17:54:38.919Z,2.40
2022-09-13T17:57:05.903Z,2.20
2022-09-13T17:59:32.862Z,2.53
2022-09-13T18:02:01.273Z,2.50
2022-09-13T18:04:29.525Z,2.58
2022-09-13T18:06:56.371Z,2.13
2022-09-13T18:09:23.252Z,2.50
2022-09-13T18:11:50.844Z,2.50
2022-09-13T18:14:19.511Z,2.70
2022-09-13T18:16:47.046Z,2.45
2022-09-13T18:19:13.965Z,2.50
2022-09-13T18:21:40.970Z,2.40
2022-09-13T18:24:08.079Z,2.40
2022-09-13T18:26:35.344Z,2.22
2022-09-13T18:29:05.364Z,2.20
2022-09-13T18:31:34.817Z,2.20
2022-09-13T18:34:05.571Z,2.50
2022-09-13T18:36:36.553Z,2.47
2022-09-13T18:39:05.375Z,3.53
2022-09-13T18:41:33.910Z,3.90
2022-09-13T18:44:00.712Z,4.03
2022-09-13T18:46:30.768Z,3.35
2022-09-13T18:48:58.160Z,3.75
2022-09-13T18:51:31.686Z,3.40
2022-09-13T18:53:59.382Z,3.40
2022-09-13T18:56:27.271Z,3.42
2022-09-13T18:58:54.853Z,3.33
2022-09-13T19:01:24.922Z,3.28
2022-09-13T19:04:04.042Z,3.25
2022-09-13T19:06:38.078Z,2.65
2022-09-13T19:11:46.222Z,2.60
2022-09-13T19:14:26.082Z,2.97
2022-09-13T19:16:55.139Z,2.97
2022-09-13T19:19:22.524Z,2.53
2022-09-13T19:21:52.493Z,2.30
2022-09-13T19:24:20.561Z,2.15
2022-09-13T19:26:50.920Z,2.20
2022-09-13T19:29:20.929Z,2.00
2022-09-13T19:31:49.637Z,2.28
2022-09-13T19:34:19.939Z,2.28
2022-09-13T19:36:47.610Z,2.65
2022-09-13T19:39:15.409Z,2.28
2022-09-13T19:41:42.267Z,2.50
2022-09-13T19:44:11.137Z,2.50
2022-09-13T19:46:40.148Z,2.60
2022-09-13T19:49:11.977Z,2.78
2022-09-13T19:51:40.579Z,2.80
2022-09-13T19:54:10.113Z,2.58
2022-09-13T19:56:39.979Z,3.08
2022-09-13T19:59:14.034Z,2.53
2022-09-13T20:01:43.521Z,2.78
2022-09-13T20:04:12.642Z,2.72
2022-09-13T20:06:50.492Z,2.75
2022-09-13T20:09:19.278Z,2.53
2022-09-13T20:11:47.656Z,2.92
2022-09-13T20:14:19.472Z,2.40
2022-09-13T20:16:46.825Z,2.40
2022-09-13T20:22:07.586Z,2.30
2022-09-13T20:24:34.638Z,2.50
2022-09-13T20:27:02.116Z,2.75
2022-09-13T20:29:28.826Z,2.95
2022-09-13T20:31:55.676Z,3.00
2022-09-13T20:34:22.509Z,3.20
2022-09-13T20:36:50.082Z,3.08
2022-09-13T20:39:17.145Z,2.90
2022-09-13T20:41:44.490Z,2.65
2022-09-13T20:44:11.889Z,2.55
2022-09-13T20:46:40.592Z,2.63
2022-09-13T20:49:09.634Z,2.83
2022-09-13T20:51:38.058Z,2.80
2022-09-13T20:54:05.568Z,2.42
2022-09-13T20:56:34.743Z,2.30
2022-09-13T20:59:02.175Z,2.30
2022-09-13T21:01:30.543Z,2.50
2022-09-13T21:03:57.926Z,2.33
2022-09-13T21:06:26.468Z,2.35
2022-09-13T21:08:54.205Z,2.35
2022-09-13T21:11:24.907Z,2.50
2022-09-13T21:13:55.027Z,2.30
2022-09-13T21:16:25.035Z,3.05
2022-09-13T21:18:53.574Z,2.53
2022-09-13T21:21:27.038Z,2.65
2022-09-13T21:23:54.939Z,2.67
2022-09-13T21:26:24.210Z,2.50
2022-09-13T21:28:51.642Z,2.47
2022-09-13T21:31:25.193Z,2.70
2022-09-13T21:34:05.632Z,2.85
2022-09-13T21:36:35.079Z,2.70
2022-09-13T21:39:02.813Z,2.40
2022-09-13T21:41:30.859Z,2.50
2022-09-13T21:43:58.494Z,2.33
2022-09-13T21:46:30.897Z,2.28
2022-09-13T21:49:00.820Z,2.20
2022-09-13T21:51:42.138Z,2.72
2022-09-13T21:54:11.806Z,2.38
2022-09-13T21:56:42.466Z,2.67
2022-09-13T21:59:15.340Z,2.30
2022-09-13T22:01:43.973Z,2.70
2022-09-13T22:04:17.230Z,2.53
2022-09-13T22:06:45.444Z,2.70
2022-09-13T22:09:13.643Z,2.50
2022-09-13T22:11:43.866Z,2.72
2022-09-13T22:14:16.912Z,2.70
2022-09-13T22:16:45.183Z,2.80
2022-09-13T22:19:18.289Z,3.03
2022-09-13T22:21:50.685Z,3.05
2022-09-13T22:24:22.352Z,2.75
2022-09-13T22:26:51.715Z,3.10
2022-09-13T22:29:19.098Z,2.75
2022-09-13T22:31:47.549Z,2.55
2022-09-13T22:34:18.149Z,2.47
2022-09-13T22:36:45.838Z,2.78
2022-09-13T22:39:15.238Z,2.67
2022-09-13T22:41:43.304Z,2.70
2022-09-13T22:44:10.913Z,2.53
2022-09-13T22:46:43.650Z,2.72
2022-09-13T22:49:19.739Z,2.90
2022-09-13T22:51:48.442Z,3.03
2022-09-13T22:54:17.279Z,3.05
2022-09-13T22:56:45.677Z,2.80
2022-09-13T22:59:15.052Z,3.05
2022-09-13T23:01:42.126Z,3.38
2022-09-13T23:04:09.061Z,3.15
2022-09-13T23:06:37.128Z,3.40
2022-09-13T23:09:08.132Z,2.97
2022-09-13T23:11:39.651Z,2.92
2022-09-13T23:14:12.229Z,3.55
2022-09-13T23:16:41.786Z,3.65
2022-09-13T23:19:10.701Z,4.10
2022-09-13T23:21:39.281Z,4.43
2022-09-13T23:24:07.891Z,5.13
2022-09-13T23:26:35.584Z,6.25
2022-09-13T23:29:04.137Z,6.68
2022-09-13T23:31:34.051Z,6.60
2022-09-13T23:34:06.520Z,7.95
2022-09-13T23:36:36.092Z,8.43
2022-09-13T23:39:03.928Z,7.47
2022-09-13T23:41:31.442Z,7.20
2022-09-13T23:43:59.437Z,7.40
2022-09-13T23:46:26.194Z,6.60
2022-09-13T23:48:53.341Z,5.35
2022-09-13T23:51:25.408Z,5.50
2022-09-13T23:53:57.235Z,4.80
2022-09-13T23:56:25.533Z,5.05
2022-09-13T23:58:52.585Z,4.60
